This is the latest recevied weather packets stored in our database for station/object N4OGP-WX. If no packets are shown the sender has not sent any weather packets the latest 10 day(s).
| Time | Temp. | Humidity | Pressure | Rain* | Wind** | Luminosity | Snow |
|---|---|---|---|---|---|---|---|
| 1778324280 | 21.11° C | 97% | 1007.1 hPa | 0 mm | - | - | - |
| 1778324190 | 21.11° C | 97% | 1007.1 hPa | 0 mm | - | - | - |
| 1778324130 | 23.89° C | 42% | 1020.4 hPa | 0 mm | - | - | - |
| 1778324040 | 21.11° C | 97% | 1007.1 hPa | 0 mm | - | - | - |
| 1778323950 | 21.11° C | 97% | 1007.1 hPa | 0 mm | - | - | - |
| 1778323890 | 21.11° C | 97% | 1007 hPa | 0 mm | - | - | - |
| 1778323800 | 20.56° C | 97% | 1007 hPa | 0 mm | - | - | - |
| 1778323710 | 23.89° C | 42% | 1020.4 hPa | 0 mm | - | - | - |
| 1778323620 | 20.56° C | 97% | 1007 hPa | 0 mm | - | - | - |
| 1778323530 | 20.56° C | 97% | 1006.9 hPa | 0 mm | - | - | - |
| 1778323440 | 20.56° C | 97% | 1006.8 hPa | 0 mm | - | - | - |
| 1778323350 | 23.89° C | 42% | 1020.4 hPa | 0 mm | - | - | - |
| 1778323290 | 23.89° C | 42% | 1020.4 hPa | 0 mm | - | - | - |
| 1778323200 | 20.56° C | 97% | 1006.6 hPa | 0 mm | - | - | - |
| 1778323110 | 20.56° C | 97% | 1006.6 hPa | 0 mm | - | - | - |
| 1778323050 | 23.89° C | 42% | 1020.4 hPa | 0 mm | - | - | - |
| 1778322960 | 20.56° C | 97% | 1006.6 hPa | 0 mm | - | - | - |
| 1778322900 | 20.56° C | 97% | 1006.6 hPa | 0 mm | - | - | - |
| 1778322810 | 20.56° C | 97% | 1006.7 hPa | 0 mm | - | - | - |
| 1778322750 | 20.56° C | 97% | 1006.8 hPa | 0 mm | - | - | - |
| 1778322690 | 20.56° C | 97% | 1006.8 hPa | 0 mm | - | - | - |
| 1778322630 | 20.56° C | 97% | 1006.8 hPa | 0 mm | - | - | - |
| 1778322540 | 23.89° C | 42% | 1020.4 hPa | 0 mm | - | - | - |
| 1778322480 | 20° C | 97% | 1006.8 hPa | 0 mm | - | - | - |
| 1778322420 | 23.89° C | 42% | 1020.4 hPa | 0 mm | - | - | - |
* Rain latest hour (hover to see other rain measurements)
** Current wind speed in m/s (hover to see current wind gust speed)